Terminal Aerodrome Forecast
Issued by NWS

Home | Current Version | Previous Version | Text Only | Print | Product List | Glossary On
Versions: 1 2 3 4 5 6 7 8 9 10 11 12 13 14 15 16 17 18
000
FTUS43 KICT 280520
TAFCNU
TAF
KCNU 280520Z 2806/2906 VRB06KT P6SM VCTS BKN040CB OVC120
     FM280900 18009KT P6SM SCT010
      TEMPO 2810/2814 BKN010
     FM281600 20013KT P6SM SCT040
     FM290100 18007KT P6SM SKC=

USA.gov is the U.S. government's official web portal to all federal, state and local government web resources and services.